sensor_id;sensor_type;location;lat;lon;timestamp;temperature;humidity
37340;DHT22;23223;51.006;7.610;2024-02-26T00:01:26;7.80;99.90
37340;DHT22;23223;51.006;7.610;2024-02-26T00:03:52;7.80;99.90
37340;DHT22;23223;51.006;7.610;2024-02-26T00:06:18;7.80;99.90
37340;DHT22;23223;51.006;7.610;2024-02-26T00:08:44;7.70;99.90
37340;DHT22;23223;51.006;7.610;2024-02-26T00:11:09;7.50;99.90
37340;DHT22;23223;51.006;7.610;2024-02-26T00:13:35;7.30;99.90
37340;DHT22;23223;51.006;7.610;2024-02-26T00:16:02;7.10;99.90
37340;DHT22;23223;51.006;7.610;2024-02-26T00:18:27;7.00;99.90
37340;DHT22;23223;51.006;7.610;2024-02-26T00:20:53;7.20;99.90
37340;DHT22;23223;51.006;7.610;2024-02-26T00:23:19;7.40;99.90
37340;DHT22;23223;51.006;7.610;2024-02-26T00:25:44;7.60;99.90
37340;DHT22;23223;51.006;7.610;2024-02-26T00:28:10;7.70;99.90
37340;DHT22;23223;51.006;7.610;2024-02-26T00:30:36;7.70;99.90
37340;DHT22;23223;51.006;7.610;2024-02-26T00:33:01;7.60;99.90
37340;DHT22;23223;51.006;7.610;2024-02-26T00:35:27;7.80;99.90
37340;DHT22;23223;51.006;7.610;2024-02-26T00:37:53;7.90;99.90
37340;DHT22;23223;51.006;7.610;2024-02-26T00:40:19;8.10;99.90
37340;DHT22;23223;51.006;7.610;2024-02-26T00:42:44;8.10;99.90
37340;DHT22;23223;51.006;7.610;2024-02-26T00:45:12;8.10;99.90
37340;DHT22;23223;51.006;7.610;2024-02-26T00:47:38;8.10;99.90
37340;DHT22;23223;51.006;7.610;2024-02-26T00:50:06;8.00;99.90
37340;DHT22;23223;51.006;7.610;2024-02-26T00:52:32;7.90;99.90
37340;DHT22;23223;51.006;7.610;2024-02-26T00:54:58;8.00;99.90
37340;DHT22;23223;51.006;7.610;2024-02-26T00:57:23;8.00;99.90
37340;DHT22;23223;51.006;7.610;2024-02-26T00:59:49;8.00;99.90
37340;DHT22;23223;51.006;7.610;2024-02-26T01:02:16;8.00;99.90
37340;DHT22;23223;51.006;7.610;2024-02-26T01:04:41;7.70;99.90
37340;DHT22;23223;51.006;7.610;2024-02-26T01:07:09;7.40;99.90
37340;DHT22;23223;51.006;7.610;2024-02-26T01:09:34;7.20;99.90
37340;DHT22;23223;51.006;7.610;2024-02-26T01:12:00;7.40;99.90
37340;DHT22;23223;51.006;7.610;2024-02-26T01:14:28;7.60;99.90
37340;DHT22;23223;51.006;7.610;2024-02-26T01:16:53;7.80;99.90
37340;DHT22;23223;51.006;7.610;2024-02-26T01:19:19;8.00;99.90
37340;DHT22;23223;51.006;7.610;2024-02-26T01:21:44;8.10;99.90
37340;DHT22;23223;51.006;7.610;2024-02-26T01:24:10;8.00;99.90
37340;DHT22;23223;51.006;7.610;2024-02-26T01:26:36;7.90;99.90
37340;DHT22;23223;51.006;7.610;2024-02-26T01:29:01;7.90;99.90
37340;DHT22;23223;51.006;7.610;2024-02-26T01:31:27;7.90;99.90
37340;DHT22;23223;51.006;7.610;2024-02-26T01:33:52;7.90;99.90
37340;DHT22;23223;51.006;7.610;2024-02-26T01:36:18;8.00;99.90
37340;DHT22;23223;51.006;7.610;2024-02-26T01:38:44;8.10;99.90
37340;DHT22;23223;51.006;7.610;2024-02-26T01:41:09;8.30;99.90
37340;DHT22;23223;51.006;7.610;2024-02-26T01:43:35;8.40;99.90
37340;DHT22;23223;51.006;7.610;2024-02-26T01:46:00;8.40;99.90
37340;DHT22;23223;51.006;7.610;2024-02-26T01:48:26;8.20;99.90
37340;DHT22;23223;51.006;7.610;2024-02-26T01:50:52;7.60;99.90
37340;DHT22;23223;51.006;7.610;2024-02-26T01:53:19;7.20;99.90
37340;DHT22;23223;51.006;7.610;2024-02-26T01:55:45;7.20;99.90
37340;DHT22;23223;51.006;7.610;2024-02-26T01:58:11;7.20;99.90
37340;DHT22;23223;51.006;7.610;2024-02-26T02:00:37;6.90;99.90
37340;DHT22;23223;51.006;7.610;2024-02-26T02:03:04;6.70;99.90
37340;DHT22;23223;51.006;7.610;2024-02-26T02:05:30;6.60;99.90
37340;DHT22;23223;51.006;7.610;2024-02-26T02:07:56;6.70;99.90
37340;DHT22;23223;51.006;7.610;2024-02-26T02:10:22;7.10;99.90
37340;DHT22;23223;51.006;7.610;2024-02-26T02:12:50;7.40;99.90
37340;DHT22;23223;51.006;7.610;2024-02-26T02:15:16;7.70;99.90
37340;DHT22;23223;51.006;7.610;2024-02-26T02:17:42;7.90;99.90
37340;DHT22;23223;51.006;7.610;2024-02-26T02:20:15;8.00;99.90
37340;DHT22;23223;51.006;7.610;2024-02-26T02:22:42;8.00;99.90
37340;DHT22;23223;51.006;7.610;2024-02-26T02:25:07;7.90;99.90
37340;DHT22;23223;51.006;7.610;2024-02-26T02:27:33;7.90;99.90
37340;DHT22;23223;51.006;7.610;2024-02-26T02:29:59;7.70;99.90
37340;DHT22;23223;51.006;7.610;2024-02-26T02:32:25;7.40;99.90
37340;DHT22;23223;51.006;7.610;2024-02-26T02:34:51;6.90;99.90
37340;DHT22;23223;51.006;7.610;2024-02-26T02:37:17;6.40;99.90
37340;DHT22;23223;51.006;7.610;2024-02-26T02:39:43;6.20;99.90
37340;DHT22;23223;51.006;7.610;2024-02-26T02:42:09;5.80;99.90
37340;DHT22;23223;51.006;7.610;2024-02-26T02:44:36;5.60;99.90
37340;DHT22;23223;51.006;7.610;2024-02-26T02:47:01;5.40;99.90
37340;DHT22;23223;51.006;7.610;2024-02-26T02:49:27;5.30;99.90
37340;DHT22;23223;51.006;7.610;2024-02-26T02:51:52;5.20;99.90
37340;DHT22;23223;51.006;7.610;2024-02-26T02:54:19;5.10;99.90
37340;DHT22;23223;51.006;7.610;2024-02-26T02:56:45;5.10;99.90
37340;DHT22;23223;51.006;7.610;2024-02-26T02:59:11;5.10;99.90
37340;DHT22;23223;51.006;7.610;2024-02-26T03:01:36;5.10;99.90
37340;DHT22;23223;51.006;7.610;2024-02-26T03:04:02;5.20;99.90
37340;DHT22;23223;51.006;7.610;2024-02-26T03:06:28;5.40;99.90
37340;DHT22;23223;51.006;7.610;2024-02-26T03:08:54;5.70;99.90
37340;DHT22;23223;51.006;7.610;2024-02-26T03:11:20;5.80;99.90
37340;DHT22;23223;51.006;7.610;2024-02-26T03:13:45;6.00;99.90
37340;DHT22;23223;51.006;7.610;2024-02-26T03:16:11;6.20;99.90
37340;DHT22;23223;51.006;7.610;2024-02-26T03:18:39;6.40;99.90
37340;DHT22;23223;51.006;7.610;2024-02-26T03:21:05;6.40;99.90
37340;DHT22;23223;51.006;7.610;2024-02-26T03:23:31;6.20;99.90
37340;DHT22;23223;51.006;7.610;2024-02-26T03:25:58;6.00;99.90
37340;DHT22;23223;51.006;7.610;2024-02-26T03:28:23;6.00;99.90
37340;DHT22;23223;51.006;7.610;2024-02-26T03:30:49;5.90;99.90
37340;DHT22;23223;51.006;7.610;2024-02-26T03:33:15;5.80;99.90
37340;DHT22;23223;51.006;7.610;2024-02-26T03:35:40;5.70;99.90
37340;DHT22;23223;51.006;7.610;2024-02-26T03:38:06;5.80;99.90
37340;DHT22;23223;51.006;7.610;2024-02-26T03:40:31;6.00;99.90
37340;DHT22;23223;51.006;7.610;2024-02-26T03:42:58;6.30;99.90
37340;DHT22;23223;51.006;7.610;2024-02-26T03:45:23;6.50;99.90
37340;DHT22;23223;51.006;7.610;2024-02-26T03:47:51;6.40;99.90
37340;DHT22;23223;51.006;7.610;2024-02-26T03:50:16;6.10;99.90
37340;DHT22;23223;51.006;7.610;2024-02-26T03:52:42;5.90;99.90
37340;DHT22;23223;51.006;7.610;2024-02-26T03:55:08;5.60;99.90
37340;DHT22;23223;51.006;7.610;2024-02-26T03:57:35;5.50;99.90
37340;DHT22;23223;51.006;7.610;2024-02-26T04:00:01;5.40;99.90
37340;DHT22;23223;51.006;7.610;2024-02-26T04:02:26;5.30;99.90
37340;DHT22;23223;51.006;7.610;2024-02-26T04:04:52;5.30;99.90
37340;DHT22;23223;51.006;7.610;2024-02-26T04:07:18;5.30;99.90
37340;DHT22;23223;51.006;7.610;2024-02-26T04:09:44;5.50;99.90
37340;DHT22;23223;51.006;7.610;2024-02-26T04:12:09;5.50;99.90
37340;DHT22;23223;51.006;7.610;2024-02-26T04:14:36;5.70;99.90
37340;DHT22;23223;51.006;7.610;2024-02-26T04:17:01;5.50;99.90
37340;DHT22;23223;51.006;7.610;2024-02-26T04:19:27;5.40;99.90
37340;DHT22;23223;51.006;7.610;2024-02-26T04:21:52;5.40;99.90
37340;DHT22;23223;51.006;7.610;2024-02-26T04:24:18;5.20;99.90
37340;DHT22;23223;51.006;7.610;2024-02-26T04:26:43;5.10;99.90
37340;DHT22;23223;51.006;7.610;2024-02-26T04:29:09;5.00;99.90
37340;DHT22;23223;51.006;7.610;2024-02-26T04:31:35;5.00;99.90
37340;DHT22;23223;51.006;7.610;2024-02-26T04:34:02;5.30;99.90
37340;DHT22;23223;51.006;7.610;2024-02-26T04:36:28;5.60;99.90
37340;DHT22;23223;51.006;7.610;2024-02-26T04:38:54;5.70;99.90
37340;DHT22;23223;51.006;7.610;2024-02-26T04:41:22;5.90;99.90
37340;DHT22;23223;51.006;7.610;2024-02-26T04:43:48;6.00;99.90
37340;DHT22;23223;51.006;7.610;2024-02-26T04:46:13;6.20;99.90
37340;DHT22;23223;51.006;7.610;2024-02-26T04:48:39;6.60;99.90
37340;DHT22;23223;51.006;7.610;2024-02-26T04:51:07;6.80;99.90
37340;DHT22;23223;51.006;7.610;2024-02-26T04:53:32;7.00;99.90
37340;DHT22;23223;51.006;7.610;2024-02-26T04:55:58;7.30;99.90
37340;DHT22;23223;51.006;7.610;2024-02-26T04:58:24;7.70;99.90
37340;DHT22;23223;51.006;7.610;2024-02-26T05:00:49;7.90;99.90
37340;DHT22;23223;51.006;7.610;2024-02-26T05:03:15;8.00;99.90
37340;DHT22;23223;51.006;7.610;2024-02-26T05:05:44;7.70;99.90
37340;DHT22;23223;51.006;7.610;2024-02-26T05:08:09;7.50;99.90
37340;DHT22;23223;51.006;7.610;2024-02-26T05:10:36;7.60;99.90
37340;DHT22;23223;51.006;7.610;2024-02-26T05:13:05;7.60;99.90
37340;DHT22;23223;51.006;7.610;2024-02-26T05:15:30;7.80;99.90
37340;DHT22;23223;51.006;7.610;2024-02-26T05:17:56;7.80;99.90
37340;DHT22;23223;51.006;7.610;2024-02-26T05:20:22;7.50;99.90
37340;DHT22;23223;51.006;7.610;2024-02-26T05:22:47;7.10;99.90
37340;DHT22;23223;51.006;7.610;2024-02-26T05:25:15;6.80;99.90
37340;DHT22;23223;51.006;7.610;2024-02-26T05:27:41;6.70;99.90
37340;DHT22;23223;51.006;7.610;2024-02-26T05:30:07;6.90;99.90
37340;DHT22;23223;51.006;7.610;2024-02-26T05:32:33;7.20;99.90
37340;DHT22;23223;51.006;7.610;2024-02-26T05:34:58;7.40;99.90
37340;DHT22;23223;51.006;7.610;2024-02-26T05:37:24;7.20;99.90
37340;DHT22;23223;51.006;7.610;2024-02-26T05:39:50;7.00;99.90
37340;DHT22;23223;51.006;7.610;2024-02-26T05:42:15;7.00;99.90
37340;DHT22;23223;51.006;7.610;2024-02-26T05:44:41;6.70;99.90
37340;DHT22;23223;51.006;7.610;2024-02-26T05:47:06;6.50;99.90
37340;DHT22;23223;51.006;7.610;2024-02-26T05:49:32;6.30;99.90
37340;DHT22;23223;51.006;7.610;2024-02-26T05:51:59;6.00;99.90
37340;DHT22;23223;51.006;7.610;2024-02-26T05:54:24;5.60;99.90
37340;DHT22;23223;51.006;7.610;2024-02-26T05:56:50;5.40;99.90
37340;DHT22;23223;51.006;7.610;2024-02-26T05:59:15;5.20;99.90
37340;DHT22;23223;51.006;7.610;2024-02-26T06:01:41;5.00;99.90
37340;DHT22;23223;51.006;7.610;2024-02-26T06:04:07;4.90;99.90
37340;DHT22;23223;51.006;7.610;2024-02-26T06:06:32;4.80;99.90
37340;DHT22;23223;51.006;7.610;2024-02-26T06:08:58;4.80;99.90
37340;DHT22;23223;51.006;7.610;2024-02-26T06:11:23;4.80;99.90
37340;DHT22;23223;51.006;7.610;2024-02-26T06:13:49;4.60;99.90
37340;DHT22;23223;51.006;7.610;2024-02-26T06:16:15;4.60;99.90
37340;DHT22;23223;51.006;7.610;2024-02-26T06:18:41;4.60;99.90
37340;DHT22;23223;51.006;7.610;2024-02-26T06:21:09;4.50;99.90
37340;DHT22;23223;51.006;7.610;2024-02-26T06:23:36;4.50;99.90
37340;DHT22;23223;51.006;7.610;2024-02-26T06:26:01;4.50;99.90
37340;DHT22;23223;51.006;7.610;2024-02-26T06:28:27;4.50;99.90
37340;DHT22;23223;51.006;7.610;2024-02-26T06:30:56;4.50;99.90
37340;DHT22;23223;51.006;7.610;2024-02-26T06:33:21;4.40;99.90
37340;DHT22;23223;51.006;7.610;2024-02-26T06:35:47;4.40;99.90
37340;DHT22;23223;51.006;7.610;2024-02-26T06:38:12;4.40;99.90
37340;DHT22;23223;51.006;7.610;2024-02-26T06:40:39;4.50;99.90
37340;DHT22;23223;51.006;7.610;2024-02-26T06:43:05;4.50;99.90
37340;DHT22;23223;51.006;7.610;2024-02-26T06:45:31;4.50;99.90
37340;DHT22;23223;51.006;7.610;2024-02-26T06:47:56;4.50;99.90
37340;DHT22;23223;51.006;7.610;2024-02-26T06:50:22;4.50;99.90
37340;DHT22;23223;51.006;7.610;2024-02-26T06:52:48;4.50;99.90
37340;DHT22;23223;51.006;7.610;2024-02-26T06:55:13;4.50;99.90
37340;DHT22;23223;51.006;7.610;2024-02-26T06:57:39;4.60;99.90
37340;DHT22;23223;51.006;7.610;2024-02-26T07:00:05;4.60;99.90
37340;DHT22;23223;51.006;7.610;2024-02-26T07:02:31;4.60;99.90
37340;DHT22;23223;51.006;7.610;2024-02-26T07:04:57;4.70;99.90
37340;DHT22;23223;51.006;7.610;2024-02-26T07:07:24;4.70;99.90
37340;DHT22;23223;51.006;7.610;2024-02-26T07:09:50;4.70;99.90
37340;DHT22;23223;51.006;7.610;2024-02-26T07:12:15;4.70;99.90
37340;DHT22;23223;51.006;7.610;2024-02-26T07:14:41;4.80;99.90
37340;DHT22;23223;51.006;7.610;2024-02-26T07:17:07;4.80;99.90
37340;DHT22;23223;51.006;7.610;2024-02-26T07:19:34;4.90;99.90
37340;DHT22;23223;51.006;7.610;2024-02-26T07:21:59;4.90;99.90
37340;DHT22;23223;51.006;7.610;2024-02-26T07:24:27;4.90;99.90
37340;DHT22;23223;51.006;7.610;2024-02-26T07:26:53;4.80;99.90
37340;DHT22;23223;51.006;7.610;2024-02-26T07:29:22;4.90;99.90
37340;DHT22;23223;51.006;7.610;2024-02-26T07:31:47;4.90;99.90
37340;DHT22;23223;51.006;7.610;2024-02-26T07:34:13;4.90;99.90
37340;DHT22;23223;51.006;7.610;2024-02-26T07:36:39;4.80;99.90
37340;DHT22;23223;51.006;7.610;2024-02-26T07:39:05;5.00;99.90
37340;DHT22;23223;51.006;7.610;2024-02-26T07:41:31;5.10;99.90
37340;DHT22;23223;51.006;7.610;2024-02-26T07:43:56;5.00;99.90
37340;DHT22;23223;51.006;7.610;2024-02-26T07:46:22;5.00;99.90
37340;DHT22;23223;51.006;7.610;2024-02-26T07:48:48;5.00;99.90
37340;DHT22;23223;51.006;7.610;2024-02-26T07:51:13;4.90;99.90
37340;DHT22;23223;51.006;7.610;2024-02-26T07:53:40;4.90;99.90
37340;DHT22;23223;51.006;7.610;2024-02-26T07:56:05;4.80;99.90
37340;DHT22;23223;51.006;7.610;2024-02-26T07:58:32;4.90;99.90
37340;DHT22;23223;51.006;7.610;2024-02-26T08:00:58;5.20;99.90
37340;DHT22;23223;51.006;7.610;2024-02-26T08:03:24;5.40;99.90
37340;DHT22;23223;51.006;7.610;2024-02-26T08:05:51;5.50;99.90
37340;DHT22;23223;51.006;7.610;2024-02-26T08:08:17;5.40;99.90
37340;DHT22;23223;51.006;7.610;2024-02-26T08:10:42;5.30;99.90
37340;DHT22;23223;51.006;7.610;2024-02-26T08:13:08;5.20;99.90
37340;DHT22;23223;51.006;7.610;2024-02-26T08:15:35;5.20;99.90
37340;DHT22;23223;51.006;7.610;2024-02-26T08:18:02;5.20;99.90
37340;DHT22;23223;51.006;7.610;2024-02-26T08:20:29;5.20;99.90
37340;DHT22;23223;51.006;7.610;2024-02-26T08:22:55;5.20;99.90
37340;DHT22;23223;51.006;7.610;2024-02-26T08:25:22;5.20;99.90
37340;DHT22;23223;51.006;7.610;2024-02-26T08:27:47;5.30;99.90
37340;DHT22;23223;51.006;7.610;2024-02-26T08:30:14;5.50;99.90
37340;DHT22;23223;51.006;7.610;2024-02-26T08:32:45;5.60;99.90
37340;DHT22;23223;51.006;7.610;2024-02-26T08:35:11;5.70;99.90
37340;DHT22;23223;51.006;7.610;2024-02-26T08:37:36;5.90;99.90
37340;DHT22;23223;51.006;7.610;2024-02-26T08:40:02;5.90;99.90
37340;DHT22;23223;51.006;7.610;2024-02-26T08:42:29;5.90;99.90
37340;DHT22;23223;51.006;7.610;2024-02-26T08:44:55;6.00;99.90
37340;DHT22;23223;51.006;7.610;2024-02-26T08:47:20;6.10;99.90
37340;DHT22;23223;51.006;7.610;2024-02-26T08:49:46;6.20;99.90
37340;DHT22;23223;51.006;7.610;2024-02-26T08:52:12;6.50;99.90
37340;DHT22;23223;51.006;7.610;2024-02-26T08:54:37;6.60;99.90
37340;DHT22;23223;51.006;7.610;2024-02-26T08:57:03;6.90;99.90
37340;DHT22;23223;51.006;7.610;2024-02-26T08:59:29;6.90;99.90
37340;DHT22;23223;51.006;7.610;2024-02-26T09:01:55;6.90;99.90
37340;DHT22;23223;51.006;7.610;2024-02-26T09:04:20;7.10;99.90
37340;DHT22;23223;51.006;7.610;2024-02-26T09:06:46;7.30;99.90
37340;DHT22;23223;51.006;7.610;2024-02-26T09:09:12;7.60;99.90
37340;DHT22;23223;51.006;7.610;2024-02-26T09:11:37;7.60;99.90
37340;DHT22;23223;51.006;7.610;2024-02-26T09:14:03;7.80;99.90
37340;DHT22;23223;51.006;7.610;2024-02-26T09:16:32;7.70;99.90
37340;DHT22;23223;51.006;7.610;2024-02-26T09:18:57;7.60;99.90
37340;DHT22;23223;51.006;7.610;2024-02-26T09:21:23;7.60;99.90
37340;DHT22;23223;51.006;7.610;2024-02-26T09:23:53;7.50;99.90
37340;DHT22;23223;51.006;7.610;2024-02-26T09:26:19;7.60;99.90
37340;DHT22;23223;51.006;7.610;2024-02-26T09:28:44;7.70;99.90
37340;DHT22;23223;51.006;7.610;2024-02-26T09:31:10;7.70;99.90
37340;DHT22;23223;51.006;7.610;2024-02-26T09:33:36;7.60;99.90
37340;DHT22;23223;51.006;7.610;2024-02-26T09:36:04;7.50;99.90
37340;DHT22;23223;51.006;7.610;2024-02-26T09:38:29;7.50;99.90
37340;DHT22;23223;51.006;7.610;2024-02-26T09:40:59;7.60;99.90
37340;DHT22;23223;51.006;7.610;2024-02-26T09:43:27;7.70;99.90
37340;DHT22;23223;51.006;7.610;2024-02-26T09:45:59;7.50;99.90
37340;DHT22;23223;51.006;7.610;2024-02-26T09:48:25;7.60;99.90
37340;DHT22;23223;51.006;7.610;2024-02-26T09:50:51;7.50;99.90
37340;DHT22;23223;51.006;7.610;2024-02-26T09:53:18;7.50;99.90
37340;DHT22;23223;51.006;7.610;2024-02-26T09:55:47;7.50;99.90
37340;DHT22;23223;51.006;7.610;2024-02-26T09:58:13;7.50;99.90
37340;DHT22;23223;51.006;7.610;2024-02-26T10:00:46;7.40;99.90
37340;DHT22;23223;51.006;7.610;2024-02-26T10:03:13;7.20;99.90
37340;DHT22;23223;51.006;7.610;2024-02-26T10:05:41;7.20;99.90
37340;DHT22;23223;51.006;7.610;2024-02-26T10:08:08;7.10;99.90
37340;DHT22;23223;51.006;7.610;2024-02-26T10:10:35;7.30;99.90
37340;DHT22;23223;51.006;7.610;2024-02-26T10:13:01;7.30;99.90
37340;DHT22;23223;51.006;7.610;2024-02-26T10:15:27;7.40;99.90
37340;DHT22;23223;51.006;7.610;2024-02-26T10:17:53;7.50;99.90
37340;DHT22;23223;51.006;7.610;2024-02-26T10:20:19;7.60;99.90
37340;DHT22;23223;51.006;7.610;2024-02-26T10:22:47;7.70;99.90
37340;DHT22;23223;51.006;7.610;2024-02-26T10:25:13;8.00;99.90
37340;DHT22;23223;51.006;7.610;2024-02-26T10:27:41;8.10;99.90
37340;DHT22;23223;51.006;7.610;2024-02-26T10:30:20;8.00;99.90
37340;DHT22;23223;51.006;7.610;2024-02-26T10:32:47;7.90;99.90
37340;DHT22;23223;51.006;7.610;2024-02-26T10:35:17;8.00;99.90
37340;DHT22;23223;51.006;7.610;2024-02-26T10:37:43;8.10;99.90
37340;DHT22;23223;51.006;7.610;2024-02-26T10:40:13;8.00;99.90
37340;DHT22;23223;51.006;7.610;2024-02-26T10:42:39;7.70;99.90
37340;DHT22;23223;51.006;7.610;2024-02-26T10:45:07;7.50;99.90
37340;DHT22;23223;51.006;7.610;2024-02-26T10:47:34;7.50;99.90
37340;DHT22;23223;51.006;7.610;2024-02-26T10:50:02;7.70;99.90
37340;DHT22;23223;51.006;7.610;2024-02-26T10:52:32;7.90;99.90
37340;DHT22;23223;51.006;7.610;2024-02-26T10:55:04;8.10;99.90
37340;DHT22;23223;51.006;7.610;2024-02-26T10:57:39;8.30;99.90
37340;DHT22;23223;51.006;7.610;2024-02-26T11:00:06;8.50;99.90
37340;DHT22;23223;51.006;7.610;2024-02-26T11:02:36;8.70;99.90
37340;DHT22;23223;51.006;7.610;2024-02-26T11:05:06;8.50;99.90
37340;DHT22;23223;51.006;7.610;2024-02-26T11:07:32;8.50;99.90
37340;DHT22;23223;51.006;7.610;2024-02-26T11:10:00;8.30;99.90
37340;DHT22;23223;51.006;7.610;2024-02-26T11:12:27;8.20;99.90
37340;DHT22;23223;51.006;7.610;2024-02-26T11:14:55;8.40;99.90
37340;DHT22;23223;51.006;7.610;2024-02-26T11:17:26;8.50;99.90
37340;DHT22;23223;51.006;7.610;2024-02-26T11:19:53;8.80;99.90
37340;DHT22;23223;51.006;7.610;2024-02-26T11:22:20;8.90;99.90
37340;DHT22;23223;51.006;7.610;2024-02-26T11:24:48;9.10;99.90
37340;DHT22;23223;51.006;7.610;2024-02-26T11:27:17;9.40;99.90
37340;DHT22;23223;51.006;7.610;2024-02-26T11:29:47;9.60;99.90
37340;DHT22;23223;51.006;7.610;2024-02-26T11:32:14;9.50;99.90
37340;DHT22;23223;51.006;7.610;2024-02-26T11:34:40;9.40;99.90
37340;DHT22;23223;51.006;7.610;2024-02-26T11:37:13;9.30;99.90
37340;DHT22;23223;51.006;7.610;2024-02-26T11:39:42;9.30;99.90
37340;DHT22;23223;51.006;7.610;2024-02-26T11:42:10;9.20;99.90
37340;DHT22;23223;51.006;7.610;2024-02-26T11:44:38;9.40;99.90
37340;DHT22;23223;51.006;7.610;2024-02-26T11:47:17;9.40;99.90
37340;DHT22;23223;51.006;7.610;2024-02-26T11:49:43;9.40;99.90
37340;DHT22;23223;51.006;7.610;2024-02-26T11:52:09;9.20;99.90
37340;DHT22;23223;51.006;7.610;2024-02-26T11:54:52;9.00;99.90
37340;DHT22;23223;51.006;7.610;2024-02-26T12:00:15;8.90;99.90
37340;DHT22;23223;51.006;7.610;2024-02-26T12:02:50;8.80;99.90
37340;DHT22;23223;51.006;7.610;2024-02-26T12:05:23;8.80;99.90
37340;DHT22;23223;51.006;7.610;2024-02-26T12:07:55;8.90;99.90
37340;DHT22;23223;51.006;7.610;2024-02-26T12:12:58;9.20;99.90
37340;DHT22;23223;51.006;7.610;2024-02-26T12:15:26;9.40;99.90
37340;DHT22;23223;51.006;7.610;2024-02-26T12:17:56;9.40;99.90
37340;DHT22;23223;51.006;7.610;2024-02-26T12:20:21;9.30;99.90
37340;DHT22;23223;51.006;7.610;2024-02-26T12:22:49;9.40;99.90
37340;DHT22;23223;51.006;7.610;2024-02-26T12:25:16;9.60;99.90
37340;DHT22;23223;51.006;7.610;2024-02-26T12:27:41;9.80;99.90
37340;DHT22;23223;51.006;7.610;2024-02-26T12:30:07;9.90;99.90
37340;DHT22;23223;51.006;7.610;2024-02-26T12:32:34;9.80;99.90
37340;DHT22;23223;51.006;7.610;2024-02-26T12:35:00;9.90;99.90
37340;DHT22;23223;51.006;7.610;2024-02-26T12:37:27;9.80;99.90
37340;DHT22;23223;51.006;7.610;2024-02-26T12:39:52;9.80;99.90
37340;DHT22;23223;51.006;7.610;2024-02-26T12:42:18;9.80;99.90
37340;DHT22;23223;51.006;7.610;2024-02-26T12:44:47;9.80;99.90
37340;DHT22;23223;51.006;7.610;2024-02-26T12:47:12;9.80;99.90
37340;DHT22;23223;51.006;7.610;2024-02-26T12:49:42;9.80;99.90
37340;DHT22;23223;51.006;7.610;2024-02-26T12:52:10;9.80;99.90
37340;DHT22;23223;51.006;7.610;2024-02-26T12:54:36;9.50;99.90
37340;DHT22;23223;51.006;7.610;2024-02-26T12:57:05;9.40;99.90
37340;DHT22;23223;51.006;7.610;2024-02-26T12:59:32;9.50;99.90
37340;DHT22;23223;51.006;7.610;2024-02-26T13:01:59;9.80;99.90
37340;DHT22;23223;51.006;7.610;2024-02-26T13:04:26;9.70;99.90
37340;DHT22;23223;51.006;7.610;2024-02-26T13:06:53;9.80;99.90
37340;DHT22;23223;51.006;7.610;2024-02-26T13:09:18;10.00;99.90
37340;DHT22;23223;51.006;7.610;2024-02-26T13:11:44;10.10;99.90
37340;DHT22;23223;51.006;7.610;2024-02-26T13:14:20;9.90;99.90
37340;DHT22;23223;51.006;7.610;2024-02-26T13:16:56;9.70;99.90
37340;DHT22;23223;51.006;7.610;2024-02-26T13:19:22;9.70;99.90
37340;DHT22;23223;51.006;7.610;2024-02-26T13:21:48;9.80;99.90
37340;DHT22;23223;51.006;7.610;2024-02-26T13:24:13;9.90;99.90
37340;DHT22;23223;51.006;7.610;2024-02-26T13:26:39;9.80;99.90
37340;DHT22;23223;51.006;7.610;2024-02-26T13:29:05;9.80;99.90
37340;DHT22;23223;51.006;7.610;2024-02-26T13:31:31;10.00;99.90
37340;DHT22;23223;51.006;7.610;2024-02-26T13:33:56;10.10;99.90
37340;DHT22;23223;51.006;7.610;2024-02-26T13:36:24;10.20;99.90
37340;DHT22;23223;51.006;7.610;2024-02-26T13:38:53;10.10;99.90
37340;DHT22;23223;51.006;7.610;2024-02-26T13:41:20;10.00;99.90
37340;DHT22;23223;51.006;7.610;2024-02-26T13:43:46;10.10;99.90
37340;DHT22;23223;51.006;7.610;2024-02-26T13:46:12;10.20;99.90
37340;DHT22;23223;51.006;7.610;2024-02-26T13:48:39;10.20;99.90
37340;DHT22;23223;51.006;7.610;2024-02-26T13:51:05;10.20;99.90
37340;DHT22;23223;51.006;7.610;2024-02-26T13:53:30;10.10;99.90
37340;DHT22;23223;51.006;7.610;2024-02-26T13:55:56;10.20;99.90
37340;DHT22;23223;51.006;7.610;2024-02-26T13:58:24;10.40;99.90
37340;DHT22;23223;51.006;7.610;2024-02-26T14:00:50;10.10;99.90
37340;DHT22;23223;51.006;7.610;2024-02-26T14:03:16;9.90;99.90
37340;DHT22;23223;51.006;7.610;2024-02-26T14:05:42;9.70;99.90
37340;DHT22;23223;51.006;7.610;2024-02-26T14:08:07;9.70;99.90
37340;DHT22;23223;51.006;7.610;2024-02-26T14:10:33;9.70;99.90
37340;DHT22;23223;51.006;7.610;2024-02-26T14:12:59;9.80;99.90
37340;DHT22;23223;51.006;7.610;2024-02-26T14:15:25;9.90;99.90
37340;DHT22;23223;51.006;7.610;2024-02-26T14:17:53;9.90;99.90
37340;DHT22;23223;51.006;7.610;2024-02-26T14:20:22;10.00;99.90
37340;DHT22;23223;51.006;7.610;2024-02-26T14:22:49;9.80;99.90
37340;DHT22;23223;51.006;7.610;2024-02-26T14:25:15;9.90;99.90
37340;DHT22;23223;51.006;7.610;2024-02-26T14:27:40;9.90;99.90
37340;DHT22;23223;51.006;7.610;2024-02-26T14:30:07;9.90;99.90
37340;DHT22;23223;51.006;7.610;2024-02-26T14:32:32;10.00;99.90
37340;DHT22;23223;51.006;7.610;2024-02-26T14:35:00;10.10;99.90
37340;DHT22;23223;51.006;7.610;2024-02-26T14:37:26;10.10;99.90
37340;DHT22;23223;51.006;7.610;2024-02-26T14:39:52;9.80;99.90
37340;DHT22;23223;51.006;7.610;2024-02-26T14:42:18;9.80;99.90
37340;DHT22;23223;51.006;7.610;2024-02-26T14:44:44;10.00;99.90
37340;DHT22;23223;51.006;7.610;2024-02-26T14:47:10;10.10;99.90
37340;DHT22;23223;51.006;7.610;2024-02-26T14:49:35;10.20;99.90
37340;DHT22;23223;51.006;7.610;2024-02-26T14:52:01;10.20;99.90
37340;DHT22;23223;51.006;7.610;2024-02-26T14:54:28;10.10;99.90
37340;DHT22;23223;51.006;7.610;2024-02-26T14:56:58;10.00;99.90
37340;DHT22;23223;51.006;7.610;2024-02-26T14:59:23;10.00;99.90
37340;DHT22;23223;51.006;7.610;2024-02-26T15:01:49;10.00;99.90
37340;DHT22;23223;51.006;7.610;2024-02-26T15:04:14;9.90;99.90
37340;DHT22;23223;51.006;7.610;2024-02-26T15:06:40;10.00;99.90
37340;DHT22;23223;51.006;7.610;2024-02-26T15:09:06;10.20;99.90
37340;DHT22;23223;51.006;7.610;2024-02-26T15:11:32;10.20;99.90
37340;DHT22;23223;51.006;7.610;2024-02-26T15:13:58;9.90;99.90
37340;DHT22;23223;51.006;7.610;2024-02-26T15:16:23;9.90;99.90
37340;DHT22;23223;51.006;7.610;2024-02-26T15:18:49;10.00;99.90
37340;DHT22;23223;51.006;7.610;2024-02-26T15:21:14;10.00;99.90
37340;DHT22;23223;51.006;7.610;2024-02-26T15:23:43;10.00;99.90
37340;DHT22;23223;51.006;7.610;2024-02-26T15:26:10;9.80;99.90
37340;DHT22;23223;51.006;7.610;2024-02-26T15:28:36;9.60;99.90
37340;DHT22;23223;51.006;7.610;2024-02-26T15:31:02;9.60;99.90
37340;DHT22;23223;51.006;7.610;2024-02-26T15:33:27;9.70;99.90
37340;DHT22;23223;51.006;7.610;2024-02-26T15:35:53;9.70;99.90
37340;DHT22;23223;51.006;7.610;2024-02-26T15:38:19;9.50;99.90
37340;DHT22;23223;51.006;7.610;2024-02-26T15:40:44;9.40;99.90
37340;DHT22;23223;51.006;7.610;2024-02-26T15:43:15;9.50;99.90
37340;DHT22;23223;51.006;7.610;2024-02-26T15:45:43;9.60;99.90